Meteo Giornale » Osservazioni meteo Svizzera » Meiringen

ore: 15:20 - Osservazioni Meteo Meiringen
Lat. 46° 45' N Lon. 8° 7' E Alt. 577 metri s.l.m.

poco_nuvoloso Europe/Zurich

22 °C

Poco Nuvoloso

Temp. 24 Ore

10 °C

24 °C

Ovest/Sud-Ovest

11.1 Km/h

Dew point 11 °C

Umidità 49 %

Visibilità  10 Km

Il sole sorge alle ore 06:26

Il sole tramonta alle ore 20:36

Data e Ora Cielo e Fenomeni T °C DP °C Um. % Pres. hPa Vis. km Vento km/h
Oggi h: 15:20 poco_nuvoloso Poco Nuvoloso 22 11 49 1016 10 O/SO 11.1
Oggi h: 14:20 poco_nuvoloso Poco Nuvoloso 21 11 52 1016 10 O/SO 11.1
Oggi h: 13:20 poco_nuvoloso Poco Nuvoloso 22 12 53 1017 10 O 9.3
Oggi h: 12:50 sereno Sereno 23 12 49 1017 10 O 7.4
Oggi h: 12:20 poco_nuvoloso Poco Nuvoloso 22 13 56 1017 10 O 9.3
Oggi h: 11:50 poco_nuvoloso Poco Nuvoloso 20 13 64 1017 10 N 5.5
Oggi h: 11:20 molto_nuvoloso Molto Nuvoloso 19 13 68 1017 10 N 5.5
Oggi h: 10:50 nuvoloso Nuvoloso 20 11 56 1017 10 N 3.7
Oggi h: 10:20 poco_nuvoloso Poco Nuvoloso 19 11 59 1017 10 N 5.5
Oggi h: 09:50 poco_nuvoloso Poco Nuvoloso 18 11 63 1017 10 N 1.8
Oggi h: 09:20 poco_nuvoloso Poco Nuvoloso 17 11 67 1017 10 N 0
Oggi h: 08:50 poco_nuvoloso Poco Nuvoloso 15 11 76 1017 10 N 0
Oggi h: 08:20 poco_nuvoloso Poco Nuvoloso 13 12 93 1017 10 N 5.5
Oggi h: 07:50 sereno Sereno 11 10 93 1017 10 N 0
Oggi h: 07:20 poco_nuvoloso Poco Nuvoloso 11 10 93 1018 10 N 0
Oggi h: 06:50 coperto Coperto 11 10 93 1018 10 N 0
Oggi h: 06:20 molto_nuvoloso Molto Nuvoloso 10 9 93 1017 10 N 3.7
Oggi h: 05:50 nuvoloso Nuvoloso 10 9 93 1018 10 N 3.7
Oggi h: 04:50 sereno Sereno 11 10 93 1018 10 N 0
Oggi h: 03:20 sereno Sereno 12 10 87 1018 10 N 5.5
Oggi h: 02:50 sereno Sereno 11 10 93 1018 10 E/SE 11.1
Oggi h: 02:20 sereno Sereno 11 10 93 1018 10 N 3.7
Oggi h: 01:50 poco_nuvoloso Poco Nuvoloso 12 11 93 1018 10 N 0
Oggi h: 01:20 poco_nuvoloso Poco Nuvoloso 12 11 93 1018 10 N 5.5
Oggi h: 00:50 poco_nuvoloso Poco Nuvoloso 14 12 87 1018 10 N 1.8
Oggi h: 00:20 sereno Sereno 14 11 82 1018 10 N 5.5
Ieri h: 23:50 sereno Sereno 13 11 87 1018 10 E 7.4
Ieri h: 23:20 sereno Sereno 14 11 82 1018 10 N 0
Ieri h: 22:50 sereno Sereno 14 12 87 1018 10 N 0
Ieri h: 22:20 sereno Sereno 14 12 87 1018 10 E/SE 7.4
Ieri h: 21:50 sereno Sereno 14 12 87 1018 10 N 5.5
Ieri h: 21:20 sereno Sereno 15 12 82 1018 10 N 5.5
Ieri h: 20:50 sereno Sereno 17 13 77 1017 10 E 7.4
Ieri h: 20:20 sereno Sereno 18 14 77 1017 10 E 7.4
Ieri h: 19:50 sereno Sereno 21 12 56 1017 10 NE 11.1
Ieri h: 19:20 sereno Sereno 22 12 53 1017 10 NE 9.3
Ieri h: 18:50 sereno Sereno 22 12 53 1017 10 NE 11.1
Ieri h: 18:20 sereno Sereno 23 10 43 1018 10 SO 7.4
Ieri h: 17:50 sereno Sereno 22 10 46 1018 10 O/SO 11.1
Ieri h: 17:20 sereno Sereno 23 9 40 1018 10 O 16.7
Ieri h: 16:50 sereno Sereno 24 10 41 1018 10 N 3.7
Ieri h: 16:20 sereno Sereno 23 12 49 1018 10 NE 18.5
Ieri h: 15:50 nuvoloso Nuvoloso 23 12 49 1018 10 E/NE 14.8